createdAt,value
2023-03-15T00:00:03.965Z,10.4
2023-03-15T00:02:02.866Z,10.4
2023-03-15T00:04:05.576Z,10.4
2023-03-15T00:06:04.298Z,10.4
2023-03-15T00:08:04.542Z,10.5
2023-03-15T00:10:03.863Z,10.4
2023-03-15T00:12:03.085Z,10.4
2023-03-15T00:14:02.817Z,10.3
2023-03-15T00:16:04.135Z,10.3
2023-03-15T00:18:03.550Z,10.3
2023-03-15T00:20:04.695Z,10.3
2023-03-15T00:22:02.801Z,10.3
2023-03-15T00:24:02.905Z,10.3
2023-03-15T00:26:03.230Z,10.3
2023-03-15T00:28:03.980Z,10.2
2023-03-15T00:30:02.711Z,10.2
2023-03-15T00:32:03.679Z,10.2
2023-03-15T00:34:02.849Z,10.2
2023-03-15T00:36:06.231Z,10.1
2023-03-15T00:38:04.347Z,10.1
2023-03-15T00:40:03.218Z,10.1
2023-03-15T00:42:03.556Z,10.0
2023-03-15T00:44:04.178Z,9.9
2023-03-15T00:46:04.592Z,9.9
2023-03-15T00:48:02.670Z,9.9
2023-03-15T00:50:02.703Z,9.8
2023-03-15T00:52:02.907Z,9.7
2023-03-15T00:54:02.847Z,9.7
2023-03-15T00:56:07.822Z,9.6
2023-03-15T00:58:02.879Z,9.5
2023-03-15T01:00:08.309Z,9.4
2023-03-15T01:02:03.370Z,9.4
2023-03-15T01:04:02.791Z,9.3
2023-03-15T01:06:05.811Z,9.2
2023-03-15T01:08:03.646Z,9.2
2023-03-15T01:10:05.163Z,9.1
2023-03-15T01:12:02.699Z,9.0
2023-03-15T01:14:04.703Z,8.9
2023-03-15T01:16:03.468Z,8.9
2023-03-15T01:18:02.663Z,8.8
2023-03-15T01:20:05.092Z,8.8
2023-03-15T01:22:03.044Z,8.7
2023-03-15T01:24:02.712Z,8.7
2023-03-15T01:26:05.272Z,8.6
2023-03-15T01:28:02.725Z,8.6
2023-03-15T01:30:02.733Z,8.5
2023-03-15T01:32:03.039Z,8.4
2023-03-15T01:34:03.257Z,8.4
2023-03-15T01:36:05.002Z,8.3
2023-03-15T01:38:02.913Z,8.3
2023-03-15T01:40:05.865Z,8.2
2023-03-15T01:42:03.086Z,8.2
2023-03-15T01:44:03.036Z,8.1
2023-03-15T01:46:07.499Z,8.0
2023-03-15T01:48:03.047Z,7.9
2023-03-15T01:50:07.263Z,7.9
2023-03-15T01:52:08.455Z,7.8
2023-03-15T01:54:08.833Z,7.7
2023-03-15T01:56:06.349Z,7.7
2023-03-15T01:58:06.430Z,7.6
2023-03-15T02:00:11.600Z,7.6
2023-03-15T02:02:04.888Z,7.5
2023-03-15T02:04:07.829Z,7.4
2023-03-15T02:06:07.177Z,7.3
2023-03-15T02:08:06.945Z,7.3
2023-03-15T02:10:08.311Z,7.2
2023-03-15T02:12:04.675Z,7.1
2023-03-15T02:14:05.717Z,7.0
2023-03-15T02:16:06.383Z,6.9
2023-03-15T02:18:02.705Z,6.9
2023-03-15T02:20:15.586Z,6.8
2023-03-15T02:22:14.168Z,6.8
2023-03-15T02:24:10.153Z,6.7
2023-03-15T02:26:15.988Z,6.7
2023-03-15T02:28:05.623Z,6.6
2023-03-15T02:30:05.224Z,6.6
2023-03-15T02:32:04.170Z,6.5
2023-03-15T02:34:04.098Z,6.4
2023-03-15T02:36:15.406Z,6.3
2023-03-15T02:38:03.357Z,6.3
2023-03-15T02:40:05.435Z,6.2
2023-03-15T02:42:02.925Z,6.1
2023-03-15T02:44:07.644Z,6.1
2023-03-15T02:46:04.524Z,5.9
2023-03-15T02:48:05.587Z,5.8
2023-03-15T02:50:02.753Z,5.8
2023-03-15T02:52:03.520Z,5.7
2023-03-15T02:54:02.859Z,5.7
2023-03-15T02:56:03.572Z,5.6
2023-03-15T02:58:02.888Z,5.6
2023-03-15T03:00:11.499Z,5.5
2023-03-15T03:02:03.704Z,5.4
2023-03-15T03:04:03.788Z,5.4
2023-03-15T03:06:03.127Z,5.4
2023-03-15T03:08:03.741Z,5.4
2023-03-15T03:10:03.441Z,5.3
2023-03-15T03:12:02.962Z,5.3
2023-03-15T03:14:02.952Z,5.3
2023-03-15T03:16:03.161Z,5.3
2023-03-15T03:18:03.467Z,5.4
2023-03-15T03:20:07.733Z,5.3
2023-03-15T03:22:03.778Z,5.4
2023-03-15T03:24:02.871Z,5.4
2023-03-15T03:26:04.222Z,5.4
2023-03-15T03:28:03.942Z,5.4
2023-03-15T03:30:04.538Z,5.4
2023-03-15T03:32:04.387Z,5.6
2023-03-15T03:34:03.239Z,5.6
2023-03-15T03:36:04.121Z,5.6
2023-03-15T03:38:02.765Z,5.6
2023-03-15T03:40:07.391Z,5.6
2023-03-15T03:42:02.978Z,5.7
2023-03-15T03:44:03.675Z,5.7
2023-03-15T03:46:03.259Z,5.7
2023-03-15T03:48:02.666Z,5.7
2023-03-15T03:50:02.829Z,5.7
2023-03-15T03:52:02.760Z,5.7
2023-03-15T03:54:03.393Z,5.7
2023-03-15T03:56:06.198Z,5.7
2023-03-15T03:58:03.451Z,5.7
2023-03-15T04:00:04.645Z,5.7
2023-03-15T04:02:02.894Z,5.7
2023-03-15T04:04:02.672Z,5.6
2023-03-15T04:06:05.207Z,5.6
2023-03-15T04:08:03.691Z,5.6
2023-03-15T04:10:04.095Z,5.6
2023-03-15T04:12:03.649Z,5.6
2023-03-15T04:14:02.718Z,5.6
2023-03-15T04:16:03.403Z,5.6
2023-03-15T04:18:05.439Z,5.6
2023-03-15T04:20:05.407Z,5.6
2023-03-15T04:22:06.321Z,5.6
2023-03-15T04:24:03.244Z,5.6
2023-03-15T04:26:03.577Z,5.6
2023-03-15T04:28:02.692Z,5.5
2023-03-15T04:30:05.146Z,5.5
2023-03-15T04:32:03.012Z,5.4
2023-03-15T04:34:03.064Z,5.4
2023-03-15T04:36:02.813Z,5.4
2023-03-15T04:38:03.951Z,5.4
2023-03-15T04:40:06.591Z,5.4
2023-03-15T04:42:03.135Z,5.4
2023-03-15T04:44:05.502Z,5.4
2023-03-15T04:46:02.866Z,5.3
2023-03-15T04:48:03.828Z,5.3
2023-03-15T04:50:03.464Z,5.4
2023-03-15T04:52:03.467Z,5.4
2023-03-15T04:54:03.934Z,5.4
2023-03-15T04:56:04.713Z,5.5
2023-03-15T04:58:03.854Z,5.5
2023-03-15T05:00:06.050Z,5.5
2023-03-15T05:02:03.941Z,5.5
2023-03-15T05:04:03.274Z,5.4
2023-03-15T05:06:07.716Z,5.4
2023-03-15T05:08:02.776Z,5.4
2023-03-15T05:10:04.418Z,5.3
2023-03-15T05:12:02.685Z,5.3
2023-03-15T05:14:02.798Z,5.2
2023-03-15T05:16:03.684Z,5.2
2023-03-15T05:18:03.700Z,5.1
2023-03-15T05:20:07.630Z,5.0
2023-03-15T05:22:03.734Z,4.9
2023-03-15T05:24:03.598Z,4.9
2023-03-15T05:26:03.319Z,4.9
2023-03-15T05:28:04.521Z,4.9
2023-03-15T05:30:05.283Z,4.9
2023-03-15T05:32:04.403Z,5.0
2023-03-15T05:34:04.096Z,5.0
2023-03-15T05:36:03.185Z,5.1
2023-03-15T05:38:03.283Z,5.1
2023-03-15T05:40:04.156Z,5.1
2023-03-15T05:42:02.947Z,5.1
2023-03-15T05:44:02.787Z,5.1
2023-03-15T05:46:02.890Z,5.0
2023-03-15T05:48:03.617Z,5.0
2023-03-15T05:50:04.731Z,5.0
2023-03-15T05:52:02.936Z,5.0
2023-03-15T05:54:03.000Z,5.0
2023-03-15T05:56:03.163Z,5.0
2023-03-15T05:58:03.440Z,4.9
2023-03-15T06:00:04.350Z,5.0
2023-03-15T06:02:03.554Z,5.0
2023-03-15T06:04:02.789Z,5.0
2023-03-15T06:06:04.327Z,5.0
2023-03-15T06:08:02.812Z,5.0
2023-03-15T06:10:03.516Z,5.0
2023-03-15T06:12:02.748Z,4.9
2023-03-15T06:14:03.105Z,4.9
2023-03-15T06:16:02.675Z,4.9
2023-03-15T06:18:04.454Z,4.9
2023-03-15T06:20:04.652Z,4.9
2023-03-15T06:22:04.255Z,4.9
2023-03-15T06:24:02.756Z,4.8
2023-03-15T06:26:02.951Z,4.8
2023-03-15T06:28:02.701Z,4.8
2023-03-15T06:30:04.717Z,4.8
2023-03-15T06:32:03.105Z,4.8
2023-03-15T06:34:02.885Z,4.8
2023-03-15T06:36:03.616Z,4.8
2023-03-15T06:38:02.746Z,4.8
2023-03-15T06:40:06.825Z,4.8
2023-03-15T06:42:04.144Z,4.7
2023-03-15T06:44:02.743Z,4.7
2023-03-15T06:46:02.762Z,4.7
2023-03-15T06:48:02.668Z,4.7
2023-03-15T06:50:03.828Z,4.7
2023-03-15T06:52:04.345Z,4.7
2023-03-15T06:54:02.882Z,4.7
2023-03-15T06:56:03.393Z,4.6
2023-03-15T06:58:03.442Z,4.7
2023-03-15T07:00:10.861Z,4.6
2023-03-15T07:02:03.075Z,4.6
2023-03-15T07:04:03.362Z,4.6
2023-03-15T07:06:02.897Z,4.6
2023-03-15T07:08:03.439Z,4.6
2023-03-15T07:10:02.866Z,4.6
2023-03-15T07:12:02.691Z,4.5
2023-03-15T07:14:02.816Z,4.5
2023-03-15T07:16:02.851Z,4.4
2023-03-15T07:18:02.926Z,4.4
2023-03-15T07:20:05.415Z,4.4
2023-03-15T07:22:02.763Z,4.4
2023-03-15T07:24:02.736Z,4.3
2023-03-15T07:26:03.606Z,4.3
2023-03-15T07:28:03.091Z,4.3
2023-03-15T07:30:04.010Z,4.2
2023-03-15T07:32:02.748Z,4.2
2023-03-15T07:34:02.982Z,4.2
2023-03-15T07:36:04.206Z,4.2
2023-03-15T07:38:02.851Z,4.1
2023-03-15T07:40:09.461Z,4.1
2023-03-15T07:42:03.142Z,4.0
2023-03-15T07:44:02.715Z,4.0
2023-03-15T07:46:03.023Z,3.9
2023-03-15T07:48:02.769Z,3.9
2023-03-15T07:50:03.711Z,3.8
2023-03-15T07:52:03.216Z,3.8
2023-03-15T07:54:03.228Z,3.8
2023-03-15T07:56:03.794Z,3.8
2023-03-15T07:58:03.752Z,3.8
2023-03-15T08:00:04.223Z,3.7
2023-03-15T08:02:03.241Z,3.7
2023-03-15T08:04:02.655Z,3.6
2023-03-15T08:06:02.870Z,3.6
2023-03-15T08:08:03.563Z,3.6
2023-03-15T08:10:02.695Z,3.5
2023-03-15T08:12:03.601Z,3.4
2023-03-15T08:14:02.864Z,3.4
2023-03-15T08:16:02.902Z,3.3
2023-03-15T08:18:05.929Z,3.3
2023-03-15T08:20:02.991Z,3.2
2023-03-15T08:22:03.063Z,3.2
2023-03-15T08:24:03.632Z,3.2
2023-03-15T08:26:02.856Z,3.2
2023-03-15T08:28:03.406Z,3.1
2023-03-15T08:30:05.531Z,3.1
2023-03-15T08:32:03.419Z,3.1
2023-03-15T08:34:03.712Z,3.1
2023-03-15T08:36:02.955Z,3.1
2023-03-15T08:38:03.038Z,3.1
2023-03-15T08:40:09.364Z,3.2
2023-03-15T08:42:04.009Z,3.3
2023-03-15T08:44:03.539Z,3.3
2023-03-15T08:46:03.921Z,3.4
2023-03-15T08:48:02.881Z,3.5
2023-03-15T08:50:04.962Z,3.6
2023-03-15T08:52:03.525Z,3.6
2023-03-15T08:54:03.767Z,3.7
2023-03-15T08:56:04.226Z,3.8
2023-03-15T08:58:04.792Z,3.8
2023-03-15T09:00:07.662Z,3.8
2023-03-15T09:02:03.459Z,3.9
2023-03-15T09:04:03.915Z,4.0
2023-03-15T09:06:03.121Z,4.0
2023-03-15T09:08:03.042Z,4.1
2023-03-15T09:10:05.651Z,4.0
2023-03-15T09:12:02.892Z,4.1
2023-03-15T09:14:03.003Z,4.1
2023-03-15T09:16:03.259Z,4.1
2023-03-15T09:18:03.083Z,4.1
2023-03-15T09:20:11.025Z,4.1
2023-03-15T09:22:16.231Z,4.1
2023-03-15T09:24:02.898Z,4.1
2023-03-15T09:26:03.632Z,4.0
2023-03-15T09:28:03.747Z,4.0
2023-03-15T09:30:03.961Z,4.1
2023-03-15T09:32:02.866Z,4.0
2023-03-15T09:34:05.353Z,4.0
2023-03-15T09:36:03.132Z,4.0
2023-03-15T09:38:03.861Z,4.0
2023-03-15T09:40:04.345Z,3.9
2023-03-15T09:42:11.069Z,3.9
2023-03-15T09:44:15.254Z,3.9
2023-03-15T09:46:19.264Z,3.9
2023-03-15T09:48:11.280Z,3.9
2023-03-15T09:50:06.789Z,3.8
2023-03-15T09:52:12.228Z,3.9
2023-03-15T09:54:07.095Z,3.8
2023-03-15T09:56:03.340Z,3.8
2023-03-15T09:58:05.266Z,3.8
2023-03-15T10:00:06.570Z,3.8
2023-03-15T10:02:13.670Z,3.8
2023-03-15T10:04:12.838Z,3.8
2023-03-15T10:06:11.262Z,3.8
2023-03-15T10:08:09.270Z,3.8
2023-03-15T10:10:04.560Z,3.8
2023-03-15T10:12:05.042Z,3.8
2023-03-15T10:14:18.473Z,3.8
2023-03-15T10:16:13.357Z,3.8
2023-03-15T10:18:17.089Z,3.8
2023-03-15T10:20:09.283Z,3.9
2023-03-15T10:22:11.246Z,3.9
2023-03-15T10:24:05.334Z,3.9
2023-03-15T10:26:08.618Z,3.9
2023-03-15T10:28:08.812Z,4.0
2023-03-15T10:30:13.526Z,4.0
2023-03-15T10:32:05.658Z,4.0
2023-03-15T10:34:03.984Z,4.0
2023-03-15T10:36:14.967Z,4.1
2023-03-15T10:38:02.935Z,4.1
2023-03-15T10:40:07.405Z,4.1
2023-03-15T10:42:04.336Z,4.1
2023-03-15T10:44:07.141Z,4.1
2023-03-15T10:46:05.802Z,4.1
2023-03-15T10:48:02.836Z,4.0
2023-03-15T10:50:02.894Z,4.1
2023-03-15T10:52:03.987Z,4.0
2023-03-15T10:54:11.752Z,4.1
2023-03-15T10:56:06.775Z,4.1
2023-03-15T10:58:18.993Z,4.0
2023-03-15T11:00:09.776Z,4.0
2023-03-15T11:02:22.084Z,3.9
2023-03-15T11:04:15.711Z,3.9
2023-03-15T11:06:13.185Z,3.9
2023-03-15T11:08:04.352Z,3.9
2023-03-15T11:10:06.259Z,3.9
2023-03-15T11:12:05.806Z,3.9
2023-03-15T11:14:02.851Z,3.9
2023-03-15T11:16:06.196Z,3.8
2023-03-15T11:18:03.849Z,3.8
2023-03-15T11:20:12.738Z,3.8
2023-03-15T11:22:03.793Z,3.8
2023-03-15T11:24:05.611Z,3.8
2023-03-15T11:26:04.156Z,3.8
2023-03-15T11:28:04.076Z,3.8
2023-03-15T11:30:04.313Z,3.8
2023-03-15T11:32:13.285Z,3.8
2023-03-15T11:34:08.144Z,3.8
2023-03-15T11:36:07.879Z,3.8
2023-03-15T11:38:15.307Z,3.8
2023-03-15T11:40:17.042Z,3.8
2023-03-15T11:42:11.084Z,3.8
2023-03-15T11:44:11.498Z,3.8
2023-03-15T11:46:08.977Z,3.8
2023-03-15T11:48:11.978Z,3.8
2023-03-15T11:50:02.956Z,3.8
2023-03-15T11:52:05.310Z,3.8
2023-03-15T11:54:09.701Z,3.8
2023-03-15T11:56:21.956Z,3.8
2023-03-15T11:58:22.080Z,3.8
2023-03-15T12:00:19.832Z,3.8
2023-03-15T12:02:22.230Z,3.8
2023-03-15T12:04:21.891Z,3.8
2023-03-15T12:06:10.012Z,3.8
2023-03-15T12:08:21.947Z,3.8
2023-03-15T12:10:22.073Z,3.8
2023-03-15T12:12:06.464Z,3.8
2023-03-15T12:14:06.875Z,3.8
2023-03-15T12:16:07.262Z,3.8
2023-03-15T12:18:06.502Z,3.8
2023-03-15T12:20:13.606Z,3.8
2023-03-15T12:22:03.474Z,3.8
2023-03-15T12:24:05.771Z,3.8
2023-03-15T12:26:10.545Z,3.8
2023-03-15T12:28:09.444Z,3.8
2023-03-15T12:30:04.084Z,3.8
2023-03-15T12:32:11.834Z,3.8
2023-03-15T12:34:05.292Z,3.8
2023-03-15T12:36:10.609Z,3.8
2023-03-15T12:38:03.221Z,3.8
2023-03-15T12:40:22.186Z,3.8
2023-03-15T12:42:05.202Z,3.7
2023-03-15T12:44:22.152Z,3.7
2023-03-15T12:46:03.863Z,3.7
2023-03-15T12:48:21.960Z,3.7
2023-03-15T12:50:21.911Z,3.7
2023-03-15T12:52:05.704Z,3.6
2023-03-15T12:54:04.217Z,3.6
2023-03-15T12:56:21.918Z,3.6
2023-03-15T12:58:04.602Z,3.6
2023-03-15T13:00:06.243Z,3.6
2023-03-15T13:02:14.193Z,3.5
2023-03-15T13:04:04.222Z,3.5
2023-03-15T13:06:09.975Z,3.4
2023-03-15T13:08:10.439Z,3.4
2023-03-15T13:10:21.894Z,3.4
2023-03-15T13:12:10.308Z,3.4
2023-03-15T13:14:16.637Z,3.3
2023-03-15T13:16:17.594Z,3.3
2023-03-15T13:18:17.409Z,3.3
2023-03-15T13:20:18.689Z,3.3
2023-03-15T13:22:14.285Z,3.3
2023-03-15T13:24:10.311Z,3.3
2023-03-15T13:26:17.524Z,3.3
2023-03-15T13:28:13.763Z,3.3
2023-03-15T13:30:19.520Z,3.2
2023-03-15T13:32:13.543Z,3.2
2023-03-15T13:34:14.117Z,3.2
2023-03-15T13:36:06.523Z,3.2
2023-03-15T13:38:09.439Z,3.2
2023-03-15T13:40:08.570Z,3.2
2023-03-15T13:42:15.861Z,3.2
2023-03-15T13:44:14.681Z,3.2
2023-03-15T13:46:02.956Z,3.1
2023-03-15T13:48:05.348Z,3.1
2023-03-15T13:50:04.318Z,3.1
2023-03-15T13:52:11.727Z,3.1
2023-03-15T13:54:07.266Z,3.1
2023-03-15T13:56:09.121Z,3.1
2023-03-15T13:58:08.400Z,3.1
2023-03-15T14:00:11.649Z,3.1
2023-03-15T14:02:05.569Z,3.1
2023-03-15T14:04:09.516Z,3.1
2023-03-15T14:06:03.424Z,3.1
2023-03-15T14:08:06.634Z,3.1
2023-03-15T14:10:22.009Z,3.1
2023-03-15T14:12:06.746Z,3.1
2023-03-15T14:14:22.673Z,3.1
2023-03-15T14:16:05.999Z,3.1
2023-03-15T14:18:13.341Z,3.1
2023-03-15T14:20:08.497Z,3.1
2023-03-15T14:22:13.343Z,3.1
2023-03-15T14:24:07.437Z,3.0
2023-03-15T14:26:08.491Z,3.1
2023-03-15T14:28:04.276Z,3.1
2023-03-15T14:30:06.090Z,3.0
2023-03-15T14:32:04.467Z,3.0
2023-03-15T14:34:09.612Z,3.0
2023-03-15T14:36:05.585Z,3.1
2023-03-15T14:38:08.384Z,3.0
2023-03-15T14:40:15.240Z,3.0
2023-03-15T14:42:03.057Z,3.0
2023-03-15T14:44:03.082Z,3.0
2023-03-15T14:46:02.902Z,2.9
2023-03-15T14:48:06.032Z,2.9
2023-03-15T14:50:03.977Z,2.9
2023-03-15T14:52:05.480Z,2.9
2023-03-15T14:54:03.718Z,2.9
2023-03-15T14:56:04.433Z,2.9
2023-03-15T14:58:04.810Z,2.8
2023-03-15T15:00:06.429Z,2.8
2023-03-15T15:02:04.069Z,2.8
2023-03-15T15:04:03.885Z,2.8
2023-03-15T15:06:05.116Z,2.7
2023-03-15T15:08:06.876Z,2.7
2023-03-15T15:10:02.877Z,2.7
2023-03-15T15:12:03.632Z,2.7
2023-03-15T15:14:03.896Z,2.8
2023-03-15T15:16:03.036Z,2.8
2023-03-15T15:18:03.031Z,2.8
2023-03-15T15:20:06.797Z,2.8
2023-03-15T15:22:03.274Z,2.8
2023-03-15T15:24:05.291Z,2.8
2023-03-15T15:26:05.614Z,2.8
2023-03-15T15:28:02.838Z,2.8
2023-03-15T15:30:03.240Z,2.8
2023-03-15T15:32:02.924Z,2.8
2023-03-15T15:34:03.476Z,2.8
2023-03-15T15:36:04.200Z,2.8
2023-03-15T15:38:03.825Z,2.9
2023-03-15T15:40:08.499Z,2.9
2023-03-15T15:42:03.998Z,2.9
2023-03-15T15:44:03.963Z,2.9
2023-03-15T15:46:03.541Z,3.0
2023-03-15T15:48:05.758Z,3.1
2023-03-15T15:50:03.474Z,3.1
2023-03-15T15:52:04.173Z,3.1
2023-03-15T15:54:03.152Z,3.2
2023-03-15T15:56:03.531Z,3.2
2023-03-15T15:58:04.872Z,3.2
2023-03-15T16:00:03.921Z,3.2
2023-03-15T16:02:03.295Z,3.2
2023-03-15T16:04:03.893Z,3.2
2023-03-15T16:06:03.813Z,3.2
2023-03-15T16:08:05.702Z,3.2
2023-03-15T16:10:03.803Z,3.3
2023-03-15T16:12:03.852Z,3.3
2023-03-15T16:14:03.714Z,3.3
2023-03-15T16:16:02.995Z,3.3
2023-03-15T16:18:04.112Z,3.3
2023-03-15T16:20:06.994Z,3.3
2023-03-15T16:22:03.561Z,3.3
2023-03-15T16:24:09.197Z,3.3
2023-03-15T16:26:04.599Z,3.4
2023-03-15T16:28:07.398Z,3.4
2023-03-15T16:30:04.636Z,3.5
2023-03-15T16:32:15.944Z,3.6
2023-03-15T16:34:02.889Z,3.6
2023-03-15T16:36:04.004Z,3.6
2023-03-15T16:38:06.456Z,3.7
2023-03-15T16:40:09.487Z,3.7
2023-03-15T16:42:03.119Z,3.7
2023-03-15T16:44:02.899Z,3.7
2023-03-15T16:46:02.984Z,3.8
2023-03-15T16:48:03.172Z,3.8
2023-03-15T16:50:03.685Z,3.9
2023-03-15T16:52:07.227Z,4.0
2023-03-15T16:54:16.180Z,4.1
2023-03-15T16:56:03.510Z,4.1
2023-03-15T16:58:10.264Z,4.2
2023-03-15T17:00:05.221Z,4.2
2023-03-15T17:02:03.133Z,4.2
2023-03-15T17:04:03.187Z,4.3
2023-03-15T17:06:03.094Z,4.3
2023-03-15T17:08:04.224Z,4.3
2023-03-15T17:10:07.942Z,4.4
2023-03-15T17:12:03.769Z,4.4
2023-03-15T17:14:03.181Z,4.4
2023-03-15T17:16:03.153Z,4.4
2023-03-15T17:18:04.228Z,4.6
2023-03-15T17:20:06.303Z,4.8
2023-03-15T17:22:04.073Z,5.0
2023-03-15T17:24:03.119Z,5.2
2023-03-15T17:26:02.971Z,5.3
2023-03-15T17:28:03.096Z,5.4
2023-03-15T17:30:08.523Z,5.6
2023-03-15T17:32:03.094Z,5.9
2023-03-15T17:34:02.908Z,5.9
2023-03-15T17:36:06.611Z,6.0
2023-03-15T17:38:05.497Z,6.0
2023-03-15T17:40:10.131Z,6.1
2023-03-15T17:42:03.162Z,6.1
2023-03-15T17:44:04.590Z,6.1
2023-03-15T17:46:02.850Z,6.1
2023-03-15T17:48:03.889Z,6.1
2023-03-15T17:50:03.132Z,6.0
2023-03-15T17:52:04.151Z,5.9
2023-03-15T17:54:10.178Z,5.8
2023-03-15T17:56:02.884Z,5.7
2023-03-15T17:58:04.064Z,5.7
2023-03-15T18:00:04.123Z,5.6
2023-03-15T18:02:03.052Z,5.6
2023-03-15T18:04:03.193Z,5.5
2023-03-15T18:06:04.839Z,5.4
2023-03-15T18:08:03.834Z,5.5
2023-03-15T18:10:03.481Z,5.4
2023-03-15T18:12:04.075Z,5.4
2023-03-15T18:14:04.748Z,5.5
2023-03-15T18:16:03.485Z,5.5
2023-03-15T18:18:06.136Z,5.6
2023-03-15T18:20:08.534Z,5.6
2023-03-15T18:22:02.927Z,5.9
2023-03-15T18:24:04.233Z,6.2
2023-03-15T18:26:04.384Z,6.3
2023-03-15T18:28:03.555Z,6.3
2023-03-15T18:30:03.808Z,6.3
2023-03-15T18:32:03.007Z,6.7
2023-03-15T18:34:03.221Z,6.8
2023-03-15T18:36:04.024Z,7.2
2023-03-15T18:38:04.233Z,7.6
2023-03-15T18:40:04.580Z,7.8
2023-03-15T18:42:03.043Z,7.7
2023-03-15T18:44:02.915Z,8.0
2023-03-15T18:46:03.542Z,8.2
2023-03-15T18:48:04.238Z,8.1
2023-03-15T18:50:09.963Z,8.1
2023-03-15T18:52:03.400Z,8.0
2023-03-15T18:54:05.533Z,7.9
2023-03-15T18:56:04.411Z,7.8
2023-03-15T18:58:04.477Z,7.8
2023-03-15T19:00:10.971Z,7.8
2023-03-15T19:02:02.946Z,7.7
2023-03-15T19:04:03.147Z,7.7
2023-03-15T19:06:05.826Z,7.6
2023-03-15T19:08:02.958Z,7.4
2023-03-15T19:10:03.840Z,7.4
2023-03-15T19:12:03.141Z,7.3
2023-03-15T19:14:02.943Z,7.1
2023-03-15T19:16:03.208Z,7.0
2023-03-15T19:18:03.066Z,6.9
2023-03-15T19:20:05.153Z,6.9
2023-03-15T19:22:03.074Z,6.8
2023-03-15T19:24:03.102Z,7.2
2023-03-15T19:26:03.157Z,7.2
2023-03-15T19:28:03.192Z,7.6
2023-03-15T19:30:04.584Z,7.9
2023-03-15T19:32:03.831Z,8.6
2023-03-15T19:34:03.121Z,8.8
2023-03-15T19:36:03.836Z,9.0
2023-03-15T19:38:03.712Z,8.8
2023-03-15T19:40:03.443Z,8.5
2023-03-15T19:42:04.055Z,8.3
2023-03-15T19:44:02.960Z,8.2
2023-03-15T19:46:04.767Z,8.1
2023-03-15T19:48:03.732Z,8.0
2023-03-15T19:50:04.033Z,7.9
2023-03-15T19:52:03.840Z,7.9
2023-03-15T19:54:03.436Z,7.8
2023-03-15T19:56:05.455Z,7.9
2023-03-15T19:58:02.979Z,7.9
2023-03-15T20:00:04.141Z,7.9
2023-03-15T20:02:02.938Z,7.9
2023-03-15T20:04:02.951Z,7.8
2023-03-15T20:06:05.116Z,7.8
2023-03-15T20:08:03.125Z,7.7
2023-03-15T20:10:04.432Z,7.7
2023-03-15T20:12:03.787Z,7.6
2023-03-15T20:14:03.078Z,7.6
2023-03-15T20:16:03.695Z,7.6
2023-03-15T20:18:07.669Z,7.5
2023-03-15T20:20:05.209Z,7.4
2023-03-15T20:22:02.923Z,7.3
2023-03-15T20:24:03.791Z,7.3
2023-03-15T20:26:06.283Z,7.3
2023-03-15T20:28:03.977Z,7.3
2023-03-15T20:30:04.569Z,7.3
2023-03-15T20:32:03.544Z,7.3
2023-03-15T20:34:05.276Z,7.3
2023-03-15T20:36:04.139Z,7.3
2023-03-15T20:38:06.778Z,7.3
2023-03-15T20:40:08.508Z,7.2
2023-03-15T20:42:03.074Z,7.2
2023-03-15T20:44:02.957Z,7.2
2023-03-15T20:46:04.117Z,7.3
2023-03-15T20:48:03.578Z,7.3
2023-03-15T20:50:02.932Z,7.4
2023-03-15T20:52:03.223Z,7.4
2023-03-15T20:54:04.546Z,7.6
2023-03-15T20:56:03.530Z,7.7
2023-03-15T20:58:03.411Z,7.7
2023-03-15T21:00:11.731Z,7.8
2023-03-15T21:02:04.000Z,7.9
2023-03-15T21:04:03.106Z,8.1
2023-03-15T21:06:04.740Z,8.1
2023-03-15T21:08:04.210Z,8.1
2023-03-15T21:10:03.820Z,8.0
2023-03-15T21:12:03.620Z,8.0
2023-03-15T21:14:03.687Z,8.0
2023-03-15T21:16:04.820Z,8.1
2023-03-15T21:18:02.908Z,8.2
2023-03-15T21:20:06.809Z,8.3
2023-03-15T21:22:03.133Z,8.4
2023-03-15T21:24:05.816Z,8.4
2023-03-15T21:26:05.963Z,8.5
2023-03-15T21:28:03.839Z,8.6
2023-03-15T21:30:03.340Z,8.6
2023-03-15T21:32:04.633Z,8.6
2023-03-15T21:34:02.851Z,8.7
2023-03-15T21:36:04.152Z,8.7
2023-03-15T21:38:03.170Z,8.8
2023-03-15T21:40:04.560Z,8.9
2023-03-15T21:42:03.806Z,8.9
2023-03-15T21:44:04.432Z,9.0
2023-03-15T21:46:04.745Z,9.1
2023-03-15T21:48:03.401Z,9.1
2023-03-15T21:50:02.891Z,9.1
2023-03-15T21:52:02.847Z,8.9
2023-03-15T21:54:04.362Z,8.9
2023-03-15T21:56:04.834Z,8.8
2023-03-15T21:58:04.260Z,8.7
2023-03-15T22:00:04.947Z,8.6
2023-03-15T22:02:03.456Z,8.4
2023-03-15T22:04:03.918Z,8.3
2023-03-15T22:06:03.889Z,8.2
2023-03-15T22:08:03.696Z,8.1
2023-03-15T22:10:03.578Z,8.0
2023-03-15T22:12:03.836Z,7.9
2023-03-15T22:14:02.887Z,7.8
2023-03-15T22:16:03.193Z,7.6
2023-03-15T22:18:04.073Z,7.4
2023-03-15T22:20:07.474Z,7.3
2023-03-15T22:22:03.424Z,7.2
2023-03-15T22:24:03.299Z,7.1
2023-03-15T22:26:02.916Z,7.0
2023-03-15T22:28:02.882Z,6.9
2023-03-15T22:30:03.658Z,6.8
2023-03-15T22:32:03.595Z,6.7
2023-03-15T22:34:04.696Z,6.6
2023-03-15T22:36:03.438Z,6.6
2023-03-15T22:38:09.411Z,6.4
2023-03-15T22:40:04.972Z,6.4
2023-03-15T22:42:03.438Z,6.3
2023-03-15T22:44:03.262Z,6.2
2023-03-15T22:46:03.707Z,6.2
2023-03-15T22:48:03.882Z,6.2
2023-03-15T22:50:03.141Z,6.1
2023-03-15T22:52:02.816Z,6.1
2023-03-15T22:54:03.036Z,6.0
2023-03-15T22:56:04.555Z,6.0
2023-03-15T22:58:02.872Z,6.0
2023-03-15T23:00:03.968Z,6.1
2023-03-15T23:02:03.902Z,6.1
2023-03-15T23:04:03.419Z,6.1
2023-03-15T23:06:03.083Z,6.1
2023-03-15T23:08:04.773Z,6.2
2023-03-15T23:10:04.133Z,6.2
2023-03-15T23:12:03.066Z,6.2
2023-03-15T23:14:02.893Z,6.3
2023-03-15T23:16:03.906Z,6.4
2023-03-15T23:18:02.856Z,6.4
2023-03-15T23:20:06.878Z,6.4
2023-03-15T23:22:04.603Z,6.5
2023-03-15T23:24:03.588Z,6.6
2023-03-15T23:26:03.580Z,6.6
2023-03-15T23:28:04.092Z,6.7
2023-03-15T23:30:03.996Z,6.7
2023-03-15T23:32:03.628Z,6.8
2023-03-15T23:34:03.374Z,6.8
2023-03-15T23:36:05.246Z,6.8
2023-03-15T23:38:02.916Z,6.9
2023-03-15T23:40:09.208Z,6.9
2023-03-15T23:42:04.520Z,7.0
2023-03-15T23:44:04.574Z,7.0
2023-03-15T23:46:05.317Z,7.1
2023-03-15T23:48:03.129Z,7.1
2023-03-15T23:50:03.223Z,7.2
2023-03-15T23:52:04.949Z,7.2
2023-03-15T23:54:02.911Z,7.2
2023-03-15T23:56:03.312Z,7.3
2023-03-15T23:58:06.338Z,7.3
